sensor_id;sensor_type;location;lat;lon;timestamp;temperature;humidity
41756;DHT22;27435;48.480;9.258;2022-08-18T00:01:17;18.20;99.00
41756;DHT22;27435;48.480;9.258;2022-08-18T00:03:44;18.10;99.00
41756;DHT22;27435;48.480;9.258;2022-08-18T00:06:10;18.10;99.00
41756;DHT22;27435;48.480;9.258;2022-08-18T00:08:36;18.00;99.00
41756;DHT22;27435;48.480;9.258;2022-08-18T00:11:02;17.90;99.00
41756;DHT22;27435;48.480;9.258;2022-08-18T00:13:28;17.90;99.00
41756;DHT22;27435;48.480;9.258;2022-08-18T00:15:53;17.90;99.00
41756;DHT22;27435;48.480;9.258;2022-08-18T00:18:19;17.90;99.00
41756;DHT22;27435;48.480;9.258;2022-08-18T00:20:45;17.80;99.00
41756;DHT22;27435;48.480;9.258;2022-08-18T00:23:11;17.80;99.00
41756;DHT22;27435;48.480;9.258;2022-08-18T00:25:37;17.70;99.00
41756;DHT22;27435;48.480;9.258;2022-08-18T00:28:03;17.60;99.00
41756;DHT22;27435;48.480;9.258;2022-08-18T00:30:30;17.60;99.00
41756;DHT22;27435;48.480;9.258;2022-08-18T00:32:57;17.70;99.00
41756;DHT22;27435;48.480;9.258;2022-08-18T00:35:29;17.60;99.00
41756;DHT22;27435;48.480;9.258;2022-08-18T00:37:57;17.50;99.00
41756;DHT22;27435;48.480;9.258;2022-08-18T00:40:30;17.60;99.00
41756;DHT22;27435;48.480;9.258;2022-08-18T00:43:00;17.60;99.00
41756;DHT22;27435;48.480;9.258;2022-08-18T00:45:38;17.70;99.00
41756;DHT22;27435;48.480;9.258;2022-08-18T00:48:06;17.70;99.00
41756;DHT22;27435;48.480;9.258;2022-08-18T00:50:56;17.50;99.00
41756;DHT22;27435;48.480;9.258;2022-08-18T00:53:37;17.50;99.00
41756;DHT22;27435;48.480;9.258;2022-08-18T00:56:12;17.50;99.00
41756;DHT22;27435;48.480;9.258;2022-08-18T00:58:57;17.60;99.00
41756;DHT22;27435;48.480;9.258;2022-08-18T01:01:26;17.70;99.00
41756;DHT22;27435;48.480;9.258;2022-08-18T01:04:06;17.80;99.00
41756;DHT22;27435;48.480;9.258;2022-08-18T01:06:47;17.80;99.00
41756;DHT22;27435;48.480;9.258;2022-08-18T01:09:16;17.80;99.00
41756;DHT22;27435;48.480;9.258;2022-08-18T01:11:42;17.80;99.00
41756;DHT22;27435;48.480;9.258;2022-08-18T01:14:10;17.80;99.00
41756;DHT22;27435;48.480;9.258;2022-08-18T01:16:40;17.80;99.00
41756;DHT22;27435;48.480;9.258;2022-08-18T01:19:26;17.80;99.00
41756;DHT22;27435;48.480;9.258;2022-08-18T01:22:28;17.60;99.00
41756;DHT22;27435;48.480;9.258;2022-08-18T01:24:56;17.50;99.00
41756;DHT22;27435;48.480;9.258;2022-08-18T01:27:42;17.50;99.00
41756;DHT22;27435;48.480;9.258;2022-08-18T01:30:12;17.50;99.00
41756;DHT22;27435;48.480;9.258;2022-08-18T01:32:39;17.60;99.00
41756;DHT22;27435;48.480;9.258;2022-08-18T01:35:07;17.60;99.00
41756;DHT22;27435;48.480;9.258;2022-08-18T01:37:34;17.60;99.00
41756;DHT22;27435;48.480;9.258;2022-08-18T01:40:00;17.70;99.00
41756;DHT22;27435;48.480;9.258;2022-08-18T01:42:30;17.60;99.00
41756;DHT22;27435;48.480;9.258;2022-08-18T01:44:55;17.50;99.00
41756;DHT22;27435;48.480;9.258;2022-08-18T01:47:21;17.40;99.00
41756;DHT22;27435;48.480;9.258;2022-08-18T01:49:47;17.40;99.00
41756;DHT22;27435;48.480;9.258;2022-08-18T01:52:18;17.50;99.00
41756;DHT22;27435;48.480;9.258;2022-08-18T01:54:46;17.40;99.00
41756;DHT22;27435;48.480;9.258;2022-08-18T01:57:11;17.50;99.00
41756;DHT22;27435;48.480;9.258;2022-08-18T01:59:40;17.50;99.00
41756;DHT22;27435;48.480;9.258;2022-08-18T02:02:06;17.50;99.00
41756;DHT22;27435;48.480;9.258;2022-08-18T02:04:33;17.50;99.00
41756;DHT22;27435;48.480;9.258;2022-08-18T02:06:59;17.50;99.00
41756;DHT22;27435;48.480;9.258;2022-08-18T02:09:27;17.50;99.00
41756;DHT22;27435;48.480;9.258;2022-08-18T02:11:54;17.40;99.00
41756;DHT22;27435;48.480;9.258;2022-08-18T02:14:20;17.30;99.00
41756;DHT22;27435;48.480;9.258;2022-08-18T02:16:45;17.30;99.00
41756;DHT22;27435;48.480;9.258;2022-08-18T02:19:11;17.30;99.00
41756;DHT22;27435;48.480;9.258;2022-08-18T02:21:37;17.30;99.00
41756;DHT22;27435;48.480;9.258;2022-08-18T02:24:03;17.20;99.00
41756;DHT22;27435;48.480;9.258;2022-08-18T02:26:28;17.20;99.00
41756;DHT22;27435;48.480;9.258;2022-08-18T02:28:54;17.30;99.00
41756;DHT22;27435;48.480;9.258;2022-08-18T02:31:22;17.40;99.00
41756;DHT22;27435;48.480;9.258;2022-08-18T02:33:47;17.50;99.00
41756;DHT22;27435;48.480;9.258;2022-08-18T02:36:13;17.40;99.00
41756;DHT22;27435;48.480;9.258;2022-08-18T02:38:40;17.40;99.00
41756;DHT22;27435;48.480;9.258;2022-08-18T02:41:08;17.30;99.00
41756;DHT22;27435;48.480;9.258;2022-08-18T02:43:35;17.40;99.00
41756;DHT22;27435;48.480;9.258;2022-08-18T02:46:01;17.40;99.00
41756;DHT22;27435;48.480;9.258;2022-08-18T02:48:26;17.50;99.00
41756;DHT22;27435;48.480;9.258;2022-08-18T02:51:08;17.60;99.00
41756;DHT22;27435;48.480;9.258;2022-08-18T02:53:35;17.50;99.00
41756;DHT22;27435;48.480;9.258;2022-08-18T02:56:19;17.40;99.00
41756;DHT22;27435;48.480;9.258;2022-08-18T02:58:54;17.20;99.00
41756;DHT22;27435;48.480;9.258;2022-08-18T03:01:21;17.20;99.00
41756;DHT22;27435;48.480;9.258;2022-08-18T03:03:48;17.30;99.00
41756;DHT22;27435;48.480;9.258;2022-08-18T03:06:15;17.20;99.00
41756;DHT22;27435;48.480;9.258;2022-08-18T03:08:42;17.20;99.00
41756;DHT22;27435;48.480;9.258;2022-08-18T03:11:16;17.20;99.00
41756;DHT22;27435;48.480;9.258;2022-08-18T03:13:42;17.30;99.00
41756;DHT22;27435;48.480;9.258;2022-08-18T03:16:08;17.40;99.00
41756;DHT22;27435;48.480;9.258;2022-08-18T03:18:34;17.50;99.00
41756;DHT22;27435;48.480;9.258;2022-08-18T03:21:10;17.50;99.00
41756;DHT22;27435;48.480;9.258;2022-08-18T03:23:37;17.50;99.00
41756;DHT22;27435;48.480;9.258;2022-08-18T03:26:08;17.40;99.00
41756;DHT22;27435;48.480;9.258;2022-08-18T03:28:47;17.40;99.00
41756;DHT22;27435;48.480;9.258;2022-08-18T03:31:16;17.50;99.00
41756;DHT22;27435;48.480;9.258;2022-08-18T03:33:43;17.50;99.00
41756;DHT22;27435;48.480;9.258;2022-08-18T03:36:11;17.40;99.00
41756;DHT22;27435;48.480;9.258;2022-08-18T03:38:38;17.40;99.00
41756;DHT22;27435;48.480;9.258;2022-08-18T03:41:09;17.40;99.00
41756;DHT22;27435;48.480;9.258;2022-08-18T03:43:35;17.40;99.00
41756;DHT22;27435;48.480;9.258;2022-08-18T03:46:06;17.40;99.00
41756;DHT22;27435;48.480;9.258;2022-08-18T03:48:34;17.50;99.00
41756;DHT22;27435;48.480;9.258;2022-08-18T03:51:04;17.60;99.00
41756;DHT22;27435;48.480;9.258;2022-08-18T03:53:31;17.60;99.00
41756;DHT22;27435;48.480;9.258;2022-08-18T03:55:58;17.70;99.00
41756;DHT22;27435;48.480;9.258;2022-08-18T03:58:24;17.70;99.00
41756;DHT22;27435;48.480;9.258;2022-08-18T04:00:49;17.70;99.00
41756;DHT22;27435;48.480;9.258;2022-08-18T04:03:15;17.80;99.00
41756;DHT22;27435;48.480;9.258;2022-08-18T04:05:40;17.80;99.00
41756;DHT22;27435;48.480;9.258;2022-08-18T04:08:06;17.70;99.00
41756;DHT22;27435;48.480;9.258;2022-08-18T04:10:33;17.60;99.00
41756;DHT22;27435;48.480;9.258;2022-08-18T04:13:00;17.60;99.00
41756;DHT22;27435;48.480;9.258;2022-08-18T04:15:30;17.60;99.00
41756;DHT22;27435;48.480;9.258;2022-08-18T04:18:00;17.60;99.00
41756;DHT22;27435;48.480;9.258;2022-08-18T04:20:29;17.60;99.00
41756;DHT22;27435;48.480;9.258;2022-08-18T04:22:56;17.50;99.00
41756;DHT22;27435;48.480;9.258;2022-08-18T04:25:22;17.40;99.00
41756;DHT22;27435;48.480;9.258;2022-08-18T04:27:48;17.20;99.00
41756;DHT22;27435;48.480;9.258;2022-08-18T04:30:13;17.30;99.00
41756;DHT22;27435;48.480;9.258;2022-08-18T04:32:39;17.30;99.00
41756;DHT22;27435;48.480;9.258;2022-08-18T04:35:05;17.30;99.00
41756;DHT22;27435;48.480;9.258;2022-08-18T04:37:31;17.20;99.00
41756;DHT22;27435;48.480;9.258;2022-08-18T04:39:57;17.20;99.00
41756;DHT22;27435;48.480;9.258;2022-08-18T04:42:24;17.10;99.00
41756;DHT22;27435;48.480;9.258;2022-08-18T04:44:50;17.00;99.00
41756;DHT22;27435;48.480;9.258;2022-08-18T04:47:16;16.90;99.00
41756;DHT22;27435;48.480;9.258;2022-08-18T04:49:41;16.80;99.00
41756;DHT22;27435;48.480;9.258;2022-08-18T04:52:09;16.80;99.00
41756;DHT22;27435;48.480;9.258;2022-08-18T04:55:08;16.80;99.00
41756;DHT22;27435;48.480;9.258;2022-08-18T04:57:34;16.90;99.00
41756;DHT22;27435;48.480;9.258;2022-08-18T05:00:00;17.10;99.00
41756;DHT22;27435;48.480;9.258;2022-08-18T05:02:26;17.30;99.00
41756;DHT22;27435;48.480;9.258;2022-08-18T05:04:52;17.40;99.00
41756;DHT22;27435;48.480;9.258;2022-08-18T05:07:19;17.30;99.00
41756;DHT22;27435;48.480;9.258;2022-08-18T05:09:45;17.40;99.00
41756;DHT22;27435;48.480;9.258;2022-08-18T05:12:12;17.50;99.00
41756;DHT22;27435;48.480;9.258;2022-08-18T05:14:43;17.70;99.00
41756;DHT22;27435;48.480;9.258;2022-08-18T05:17:09;17.70;99.00
41756;DHT22;27435;48.480;9.258;2022-08-18T05:19:36;17.60;99.00
41756;DHT22;27435;48.480;9.258;2022-08-18T05:22:02;17.60;99.00
41756;DHT22;27435;48.480;9.258;2022-08-18T05:24:30;17.60;99.00
41756;DHT22;27435;48.480;9.258;2022-08-18T05:26:58;17.70;99.00
41756;DHT22;27435;48.480;9.258;2022-08-18T05:29:24;17.80;99.00
41756;DHT22;27435;48.480;9.258;2022-08-18T05:31:51;17.90;99.00
41756;DHT22;27435;48.480;9.258;2022-08-18T05:34:18;17.90;99.00
41756;DHT22;27435;48.480;9.258;2022-08-18T05:44:18;18.00;99.00
41756;DHT22;27435;48.480;9.258;2022-08-18T05:46:52;18.10;99.00
41756;DHT22;27435;48.480;9.258;2022-08-18T05:49:19;18.20;99.00
41756;DHT22;27435;48.480;9.258;2022-08-18T05:51:48;18.40;99.00
41756;DHT22;27435;48.480;9.258;2022-08-18T05:54:18;18.50;99.00
41756;DHT22;27435;48.480;9.258;2022-08-18T05:57:16;18.60;99.00
41756;DHT22;27435;48.480;9.258;2022-08-18T05:59:43;18.60;99.00
41756;DHT22;27435;48.480;9.258;2022-08-18T06:04:43;18.80;99.00
41756;DHT22;27435;48.480;9.258;2022-08-18T06:07:18;18.80;99.00
41756;DHT22;27435;48.480;9.258;2022-08-18T06:09:52;18.90;99.00
41756;DHT22;27435;48.480;9.258;2022-08-18T06:12:38;19.10;99.00
41756;DHT22;27435;48.480;9.258;2022-08-18T06:15:37;19.10;99.00
41756;DHT22;27435;48.480;9.258;2022-08-18T06:23:57;19.70;99.00
41756;DHT22;27435;48.480;9.258;2022-08-18T06:26:52;19.80;99.00
41756;DHT22;27435;48.480;9.258;2022-08-18T06:29:52;20.10;99.00
41756;DHT22;27435;48.480;9.258;2022-08-18T06:35:36;20.10;99.00
41756;DHT22;27435;48.480;9.258;2022-08-18T06:41:19;19.90;99.00
41756;DHT22;27435;48.480;9.258;2022-08-18T06:44:03;20.10;99.00
41756;DHT22;27435;48.480;9.258;2022-08-18T06:49:04;20.30;99.00
41756;DHT22;27435;48.480;9.258;2022-08-18T06:51:30;20.20;99.00
41756;DHT22;27435;48.480;9.258;2022-08-18T06:54:03;20.30;99.00
41756;DHT22;27435;48.480;9.258;2022-08-18T07:01:48;20.40;99.00
41756;DHT22;27435;48.480;9.258;2022-08-18T07:07:29;20.40;99.00
41756;DHT22;27435;48.480;9.258;2022-08-18T07:09:55;20.40;99.00
41756;DHT22;27435;48.480;9.258;2022-08-18T07:12:24;20.20;99.00
41756;DHT22;27435;48.480;9.258;2022-08-18T07:14:55;20.10;99.00
41756;DHT22;27435;48.480;9.258;2022-08-18T07:17:30;19.90;99.00
41756;DHT22;27435;48.480;9.258;2022-08-18T07:20:20;19.90;99.00
41756;DHT22;27435;48.480;9.258;2022-08-18T07:25:26;19.70;99.00
41756;DHT22;27435;48.480;9.258;2022-08-18T07:27:52;19.50;99.00
41756;DHT22;27435;48.480;9.258;2022-08-18T07:30:25;19.40;99.00
41756;DHT22;27435;48.480;9.258;2022-08-18T07:35:37;19.50;99.00
41756;DHT22;27435;48.480;9.258;2022-08-18T07:38:12;19.60;99.00
41756;DHT22;27435;48.480;9.258;2022-08-18T07:40:52;19.80;99.00
41756;DHT22;27435;48.480;9.258;2022-08-18T07:43:32;19.70;99.00
41756;DHT22;27435;48.480;9.258;2022-08-18T07:46:11;19.90;99.00
41756;DHT22;27435;48.480;9.258;2022-08-18T07:48:37;20.00;99.00
41756;DHT22;27435;48.480;9.258;2022-08-18T07:54:22;19.70;99.00
41756;DHT22;27435;48.480;9.258;2022-08-18T08:04:54;19.20;99.00
41756;DHT22;27435;48.480;9.258;2022-08-18T08:07:37;19.20;99.00
41756;DHT22;27435;48.480;9.258;2022-08-18T08:16:03;20.80;99.00
41756;DHT22;27435;48.480;9.258;2022-08-18T08:21:10;21.30;99.00
41756;DHT22;27435;48.480;9.258;2022-08-18T08:23:53;21.50;99.00
41756;DHT22;27435;48.480;9.258;2022-08-18T08:26:30;22.10;97.90
41756;DHT22;27435;48.480;9.258;2022-08-18T08:29:13;22.30;97.30
41756;DHT22;27435;48.480;9.258;2022-08-18T08:32:13;22.10;96.30
41756;DHT22;27435;48.480;9.258;2022-08-18T08:34:56;21.70;97.50
41756;DHT22;27435;48.480;9.258;2022-08-18T08:37:35;21.80;98.00
41756;DHT22;27435;48.480;9.258;2022-08-18T08:40:08;22.10;96.60
41756;DHT22;27435;48.480;9.258;2022-08-18T08:42:42;21.80;96.90
41756;DHT22;27435;48.480;9.258;2022-08-18T08:45:17;21.70;97.90
41756;DHT22;27435;48.480;9.258;2022-08-18T08:47:54;21.50;98.40
41756;DHT22;27435;48.480;9.258;2022-08-18T08:50:26;21.60;98.50
41756;DHT22;27435;48.480;9.258;2022-08-18T08:53:06;21.60;97.80
41756;DHT22;27435;48.480;9.258;2022-08-18T08:55:41;21.80;94.20
41756;DHT22;27435;48.480;9.258;2022-08-18T08:58:30;21.90;94.20
41756;DHT22;27435;48.480;9.258;2022-08-18T09:00:58;21.80;95.50
41756;DHT22;27435;48.480;9.258;2022-08-18T09:03:37;21.60;96.50
41756;DHT22;27435;48.480;9.258;2022-08-18T09:09:01;21.30;95.40
41756;DHT22;27435;48.480;9.258;2022-08-18T09:17:39;22.70;90.40
41756;DHT22;27435;48.480;9.258;2022-08-18T09:28:18;24.00;80.40
41756;DHT22;27435;48.480;9.258;2022-08-18T09:41:53;23.90;82.60
41756;DHT22;27435;48.480;9.258;2022-08-18T09:47:55;23.80;82.20
41756;DHT22;27435;48.480;9.258;2022-08-18T09:57:34;22.70;86.00
41756;DHT22;27435;48.480;9.258;2022-08-18T10:10:48;23.50;85.10
41756;DHT22;27435;48.480;9.258;2022-08-18T10:13:35;23.50;84.70
41756;DHT22;27435;48.480;9.258;2022-08-18T10:22:09;23.70;83.60
41756;DHT22;27435;48.480;9.258;2022-08-18T10:25:04;23.70;83.30
41756;DHT22;27435;48.480;9.258;2022-08-18T10:32:59;23.30;85.10
41756;DHT22;27435;48.480;9.258;2022-08-18T10:38:13;23.20;84.20
41756;DHT22;27435;48.480;9.258;2022-08-18T10:40:40;23.40;83.10
41756;DHT22;27435;48.480;9.258;2022-08-18T10:43:51;23.80;82.50
41756;DHT22;27435;48.480;9.258;2022-08-18T10:46:22;24.20;80.50
41756;DHT22;27435;48.480;9.258;2022-08-18T10:49:01;24.40;79.60
41756;DHT22;27435;48.480;9.258;2022-08-18T10:54:32;24.60;81.00
41756;DHT22;27435;48.480;9.258;2022-08-18T10:57:12;24.30;80.00
41756;DHT22;27435;48.480;9.258;2022-08-18T10:59:52;24.50;79.60
41756;DHT22;27435;48.480;9.258;2022-08-18T11:03:06;24.80;79.20
41756;DHT22;27435;48.480;9.258;2022-08-18T11:05:34;24.90;78.00
41756;DHT22;27435;48.480;9.258;2022-08-18T11:08:04;25.40;77.80
41756;DHT22;27435;48.480;9.258;2022-08-18T11:10:41;25.30;78.00
41756;DHT22;27435;48.480;9.258;2022-08-18T11:24:10;24.60;80.80
41756;DHT22;27435;48.480;9.258;2022-08-18T11:26:40;24.90;79.30
41756;DHT22;27435;48.480;9.258;2022-08-18T11:29:36;25.10;78.20
41756;DHT22;27435;48.480;9.258;2022-08-18T11:34:59;25.40;78.20
41756;DHT22;27435;48.480;9.258;2022-08-18T11:42:57;25.00;79.40
41756;DHT22;27435;48.480;9.258;2022-08-18T11:45:27;24.80;80.20
41756;DHT22;27435;48.480;9.258;2022-08-18T11:54:21;24.80;79.70
41756;DHT22;27435;48.480;9.258;2022-08-18T11:56:30;25.10;79.60
41756;DHT22;27435;48.480;9.258;2022-08-18T12:01:53;25.10;79.10
41756;DHT22;27435;48.480;9.258;2022-08-18T12:09:26;26.20;76.40
41756;DHT22;27435;48.480;9.258;2022-08-18T12:11:57;25.90;76.40
41756;DHT22;27435;48.480;9.258;2022-08-18T12:14:28;25.50;77.60
41756;DHT22;27435;48.480;9.258;2022-08-18T12:16:56;25.40;78.20
41756;DHT22;27435;48.480;9.258;2022-08-18T12:19:23;25.60;77.50
41756;DHT22;27435;48.480;9.258;2022-08-18T12:21:54;25.60;78.00
41756;DHT22;27435;48.480;9.258;2022-08-18T12:24:23;26.10;77.00
41756;DHT22;27435;48.480;9.258;2022-08-18T12:26:50;26.50;75.60
41756;DHT22;27435;48.480;9.258;2022-08-18T12:29:17;26.80;73.80
41756;DHT22;27435;48.480;9.258;2022-08-18T12:31:59;26.20;74.50
41756;DHT22;27435;48.480;9.258;2022-08-18T12:34:25;25.70;75.40
41756;DHT22;27435;48.480;9.258;2022-08-18T12:36:53;25.40;77.50
41756;DHT22;27435;48.480;9.258;2022-08-18T12:39:19;25.30;78.00
41756;DHT22;27435;48.480;9.258;2022-08-18T12:41:45;25.20;78.10
41756;DHT22;27435;48.480;9.258;2022-08-18T12:44:11;25.20;76.70
41756;DHT22;27435;48.480;9.258;2022-08-18T12:46:36;25.40;76.80
41756;DHT22;27435;48.480;9.258;2022-08-18T12:49:04;25.40;76.80
41756;DHT22;27435;48.480;9.258;2022-08-18T12:51:30;25.50;76.20
41756;DHT22;27435;48.480;9.258;2022-08-18T12:53:56;25.20;76.00
41756;DHT22;27435;48.480;9.258;2022-08-18T12:56:25;25.00;77.90
41756;DHT22;27435;48.480;9.258;2022-08-18T12:58:52;24.90;78.90
41756;DHT22;27435;48.480;9.258;2022-08-18T13:01:19;25.30;78.10
41756;DHT22;27435;48.480;9.258;2022-08-18T13:03:47;25.20;76.30
41756;DHT22;27435;48.480;9.258;2022-08-18T13:06:14;24.90;75.80
41756;DHT22;27435;48.480;9.258;2022-08-18T13:08:40;25.00;76.40
41756;DHT22;27435;48.480;9.258;2022-08-18T13:11:06;25.00;77.30
41756;DHT22;27435;48.480;9.258;2022-08-18T13:13:38;24.70;79.00
41756;DHT22;27435;48.480;9.258;2022-08-18T13:16:06;24.90;77.70
41756;DHT22;27435;48.480;9.258;2022-08-18T13:18:33;24.70;78.20
41756;DHT22;27435;48.480;9.258;2022-08-18T13:20:59;24.70;77.90
41756;DHT22;27435;48.480;9.258;2022-08-18T13:23:25;24.70;76.90
41756;DHT22;27435;48.480;9.258;2022-08-18T13:25:52;24.70;77.70
41756;DHT22;27435;48.480;9.258;2022-08-18T13:28:18;24.60;78.00
41756;DHT22;27435;48.480;9.258;2022-08-18T13:30:44;24.70;78.20
41756;DHT22;27435;48.480;9.258;2022-08-18T13:33:10;24.80;77.60
41756;DHT22;27435;48.480;9.258;2022-08-18T13:35:36;24.90;77.40
41756;DHT22;27435;48.480;9.258;2022-08-18T13:38:02;25.10;77.20
41756;DHT22;27435;48.480;9.258;2022-08-18T13:40:30;25.50;75.30
41756;DHT22;27435;48.480;9.258;2022-08-18T13:42:56;25.60;75.00
41756;DHT22;27435;48.480;9.258;2022-08-18T13:45:22;25.60;75.30
41756;DHT22;27435;48.480;9.258;2022-08-18T13:47:48;25.70;75.20
41756;DHT22;27435;48.480;9.258;2022-08-18T13:50:15;25.90;75.40
41756;DHT22;27435;48.480;9.258;2022-08-18T13:52:41;25.80;74.50
41756;DHT22;27435;48.480;9.258;2022-08-18T13:55:15;25.70;75.10
41756;DHT22;27435;48.480;9.258;2022-08-18T13:57:42;25.50;75.20
41756;DHT22;27435;48.480;9.258;2022-08-18T14:00:17;25.40;75.10
41756;DHT22;27435;48.480;9.258;2022-08-18T14:02:45;25.30;75.50
41756;DHT22;27435;48.480;9.258;2022-08-18T14:05:12;25.50;75.30
41756;DHT22;27435;48.480;9.258;2022-08-18T14:07:38;25.80;74.10
41756;DHT22;27435;48.480;9.258;2022-08-18T14:10:05;25.60;74.30
41756;DHT22;27435;48.480;9.258;2022-08-18T14:12:34;25.70;74.10
41756;DHT22;27435;48.480;9.258;2022-08-18T14:15:01;25.40;74.40
41756;DHT22;27435;48.480;9.258;2022-08-18T14:17:26;25.70;74.00
41756;DHT22;27435;48.480;9.258;2022-08-18T14:19:52;25.70;74.20
41756;DHT22;27435;48.480;9.258;2022-08-18T14:22:37;25.70;74.30
41756;DHT22;27435;48.480;9.258;2022-08-18T14:25:21;25.40;75.10
41756;DHT22;27435;48.480;9.258;2022-08-18T14:28:06;25.20;75.70
41756;DHT22;27435;48.480;9.258;2022-08-18T14:30:35;25.10;75.70
41756;DHT22;27435;48.480;9.258;2022-08-18T14:33:07;25.40;74.80
41756;DHT22;27435;48.480;9.258;2022-08-18T14:35:33;25.50;74.70
41756;DHT22;27435;48.480;9.258;2022-08-18T14:37:59;25.60;74.50
41756;DHT22;27435;48.480;9.258;2022-08-18T14:40:28;25.60;74.20
41756;DHT22;27435;48.480;9.258;2022-08-18T14:42:55;25.30;74.80
41756;DHT22;27435;48.480;9.258;2022-08-18T14:45:23;25.10;75.30
41756;DHT22;27435;48.480;9.258;2022-08-18T14:47:49;25.30;74.00
41756;DHT22;27435;48.480;9.258;2022-08-18T14:50:19;25.50;74.00
41756;DHT22;27435;48.480;9.258;2022-08-18T14:52:44;25.60;73.30
41756;DHT22;27435;48.480;9.258;2022-08-18T14:55:10;26.00;71.90
41756;DHT22;27435;48.480;9.258;2022-08-18T14:57:39;25.90;71.40
41756;DHT22;27435;48.480;9.258;2022-08-18T15:00:08;25.20;74.10
41756;DHT22;27435;48.480;9.258;2022-08-18T15:02:36;25.80;72.50
41756;DHT22;27435;48.480;9.258;2022-08-18T15:05:03;26.00;72.00
41756;DHT22;27435;48.480;9.258;2022-08-18T15:07:29;26.10;71.60
41756;DHT22;27435;48.480;9.258;2022-08-18T15:09:55;26.10;72.00
41756;DHT22;27435;48.480;9.258;2022-08-18T15:12:23;26.20;71.10
41756;DHT22;27435;48.480;9.258;2022-08-18T15:14:49;25.90;72.30
41756;DHT22;27435;48.480;9.258;2022-08-18T15:17:15;25.90;71.80
41756;DHT22;27435;48.480;9.258;2022-08-18T15:19:41;25.90;71.40
41756;DHT22;27435;48.480;9.258;2022-08-18T15:22:08;26.00;71.80
41756;DHT22;27435;48.480;9.258;2022-08-18T15:24:52;26.10;71.40
41756;DHT22;27435;48.480;9.258;2022-08-18T15:27:37;26.10;71.70
41756;DHT22;27435;48.480;9.258;2022-08-18T15:30:10;25.90;72.40
41756;DHT22;27435;48.480;9.258;2022-08-18T15:32:37;25.80;72.10
41756;DHT22;27435;48.480;9.258;2022-08-18T15:35:04;26.10;71.30
41756;DHT22;27435;48.480;9.258;2022-08-18T15:37:35;26.40;70.40
41756;DHT22;27435;48.480;9.258;2022-08-18T15:40:11;25.70;72.40
41756;DHT22;27435;48.480;9.258;2022-08-18T15:42:46;26.00;71.80
41756;DHT22;27435;48.480;9.258;2022-08-18T15:45:16;25.80;72.00
41756;DHT22;27435;48.480;9.258;2022-08-18T15:47:42;26.10;71.50
41756;DHT22;27435;48.480;9.258;2022-08-18T15:50:09;26.10;71.10
41756;DHT22;27435;48.480;9.258;2022-08-18T15:52:35;26.00;71.40
41756;DHT22;27435;48.480;9.258;2022-08-18T15:55:01;25.90;71.80
41756;DHT22;27435;48.480;9.258;2022-08-18T15:57:26;26.10;71.00
41756;DHT22;27435;48.480;9.258;2022-08-18T15:59:55;25.70;72.50
41756;DHT22;27435;48.480;9.258;2022-08-18T16:02:20;25.70;71.90
41756;DHT22;27435;48.480;9.258;2022-08-18T16:07:52;25.70;72.50
41756;DHT22;27435;48.480;9.258;2022-08-18T16:10:20;25.60;73.00
41756;DHT22;27435;48.480;9.258;2022-08-18T16:12:48;25.70;73.00
41756;DHT22;27435;48.480;9.258;2022-08-18T16:15:16;25.60;73.40
41756;DHT22;27435;48.480;9.258;2022-08-18T16:17:42;25.70;73.00
41756;DHT22;27435;48.480;9.258;2022-08-18T16:20:09;25.60;72.90
41756;DHT22;27435;48.480;9.258;2022-08-18T16:22:35;25.60;73.20
41756;DHT22;27435;48.480;9.258;2022-08-18T16:25:04;25.70;73.10
41756;DHT22;27435;48.480;9.258;2022-08-18T16:27:35;26.00;71.70
41756;DHT22;27435;48.480;9.258;2022-08-18T16:30:06;25.90;72.80
41756;DHT22;27435;48.480;9.258;2022-08-18T16:32:32;25.70;73.30
41756;DHT22;27435;48.480;9.258;2022-08-18T16:34:57;25.70;72.70
41756;DHT22;27435;48.480;9.258;2022-08-18T16:37:24;25.60;72.90
41756;DHT22;27435;48.480;9.258;2022-08-18T16:39:52;25.60;73.00
41756;DHT22;27435;48.480;9.258;2022-08-18T16:42:18;25.00;74.50
41756;DHT22;27435;48.480;9.258;2022-08-18T16:44:43;24.90;75.10
41756;DHT22;27435;48.480;9.258;2022-08-18T16:47:10;25.00;74.80
41756;DHT22;27435;48.480;9.258;2022-08-18T16:49:38;24.90;75.40
41756;DHT22;27435;48.480;9.258;2022-08-18T16:52:05;24.90;75.50
41756;DHT22;27435;48.480;9.258;2022-08-18T16:54:31;25.00;74.80
41756;DHT22;27435;48.480;9.258;2022-08-18T16:56:58;25.10;74.20
41756;DHT22;27435;48.480;9.258;2022-08-18T16:59:24;24.90;75.50
41756;DHT22;27435;48.480;9.258;2022-08-18T17:02:08;24.90;74.90
41756;DHT22;27435;48.480;9.258;2022-08-18T17:04:53;24.60;75.50
41756;DHT22;27435;48.480;9.258;2022-08-18T17:07:18;24.70;75.70
41756;DHT22;27435;48.480;9.258;2022-08-18T17:09:44;24.50;76.00
41756;DHT22;27435;48.480;9.258;2022-08-18T17:12:10;24.30;76.20
41756;DHT22;27435;48.480;9.258;2022-08-18T17:14:36;24.30;76.10
41756;DHT22;27435;48.480;9.258;2022-08-18T17:17:02;24.40;76.10
41756;DHT22;27435;48.480;9.258;2022-08-18T17:19:32;24.50;75.40
41756;DHT22;27435;48.480;9.258;2022-08-18T17:21:59;24.40;75.70
41756;DHT22;27435;48.480;9.258;2022-08-18T17:24:25;24.20;76.40
41756;DHT22;27435;48.480;9.258;2022-08-18T17:27:05;24.40;75.90
41756;DHT22;27435;48.480;9.258;2022-08-18T17:29:52;24.30;76.10
41756;DHT22;27435;48.480;9.258;2022-08-18T17:32:26;24.40;75.10
41756;DHT22;27435;48.480;9.258;2022-08-18T17:35:00;24.20;76.00
41756;DHT22;27435;48.480;9.258;2022-08-18T17:37:28;24.10;76.50
41756;DHT22;27435;48.480;9.258;2022-08-18T17:40:12;24.10;76.30
41756;DHT22;27435;48.480;9.258;2022-08-18T17:42:40;24.00;76.50
41756;DHT22;27435;48.480;9.258;2022-08-18T17:45:09;24.00;77.10
41756;DHT22;27435;48.480;9.258;2022-08-18T17:47:52;24.00;77.50
41756;DHT22;27435;48.480;9.258;2022-08-18T17:50:37;23.90;77.80
41756;DHT22;27435;48.480;9.258;2022-08-18T17:53:23;23.80;78.10
41756;DHT22;27435;48.480;9.258;2022-08-18T17:55:50;23.80;78.40
41756;DHT22;27435;48.480;9.258;2022-08-18T18:00:50;23.50;79.70
41756;DHT22;27435;48.480;9.258;2022-08-18T18:03:16;23.10;84.40
41756;DHT22;27435;48.480;9.258;2022-08-18T18:05:48;22.50;89.20
41756;DHT22;27435;48.480;9.258;2022-08-18T18:08:14;22.10;91.50
41756;DHT22;27435;48.480;9.258;2022-08-18T18:10:46;21.90;93.50
41756;DHT22;27435;48.480;9.258;2022-08-18T18:13:23;21.50;96.40
41756;DHT22;27435;48.480;9.258;2022-08-18T18:15:56;21.40;97.40
41756;DHT22;27435;48.480;9.258;2022-08-18T18:18:37;21.40;98.00
41756;DHT22;27435;48.480;9.258;2022-08-18T18:23:44;21.30;99.00
41756;DHT22;27435;48.480;9.258;2022-08-18T18:26:22;21.20;99.00
41756;DHT22;27435;48.480;9.258;2022-08-18T18:28:51;21.00;99.00
41756;DHT22;27435;48.480;9.258;2022-08-18T18:31:25;21.00;99.00
41756;DHT22;27435;48.480;9.258;2022-08-18T18:34:06;21.00;99.00
41756;DHT22;27435;48.480;9.258;2022-08-18T18:36:45;20.90;99.00
41756;DHT22;27435;48.480;9.258;2022-08-18T18:39:24;20.70;99.00